CheckWX is a tool to help pilots better visualize weather data.  It is not intended as a substitute for an official pre-flight weather briefing.

10:45:40 UTC

YWGT METAR
Wangaratta Airport
Australia
Current

46 mins ago

YWGT 181000Z AUTO 32003KT 9999 // NCD 18/00 Q1024
Observed
Apr-18 @ 10:00 UTC
Wind
  • 320° at 3 KTS
Visibility
10,000+ meters
Flight Rules
VFR
Cloud Levels
  • Clear skies
Temperature
18°C / 64°F
Dewpoint
C / 32°F
Humidity
30%
Altimeter
30.24" Hg
Pressure
1023.92 hPa
Previous

2 hours ago

YWGT 180900Z AUTO 30004KT 9999 // NCD 20/M02 Q1024
Observed
Apr-18 @ 09:00 UTC
Wind
  • 300° at 4 KTS
Visibility
10,000+ meters
Flight Rules
VFR
Cloud Levels
  • Clear skies
Temperature
20°C / 68°F
Dewpoint
-2°C / 28°F
Humidity
23%
Altimeter
30.24" Hg
Pressure
1023.92 hPa
Previous

3 hours ago

YWGT 180800Z AUTO 26006KT 9999 // NCD 21/M02 Q1023
Observed
Apr-18 @ 08:00 UTC
Wind
  • 260° at 6 KTS
Visibility
10,000+ meters
Flight Rules
VFR
Cloud Levels
  • Clear skies
Temperature
21°C / 70°F
Dewpoint
-2°C / 28°F
Humidity
21%
Altimeter
30.21" Hg
Pressure
1022.92 hPa